createdAt,value
2023-04-09T00:00:02.777Z,8.33
2023-04-09T00:01:02.654Z,8.37
2023-04-09T00:02:01.665Z,8.37
2023-04-09T00:03:01.923Z,8.44
2023-04-09T00:04:01.947Z,8.44
2023-04-09T00:05:01.713Z,8.40
2023-04-09T00:06:01.664Z,8.40
2023-04-09T00:07:02.346Z,8.44
2023-04-09T00:08:02.622Z,8.44
2023-04-09T00:09:02.807Z,8.44
2023-04-09T00:10:02.411Z,8.45
2023-04-09T00:11:02.292Z,8.47
2023-04-09T00:12:02.206Z,8.48
2023-04-09T00:13:02.068Z,8.50
2023-04-09T00:14:02.097Z,8.48
2023-04-09T00:15:02.124Z,8.54
2023-04-09T00:16:02.156Z,8.55
2023-04-09T00:17:02.504Z,8.51
2023-04-09T00:18:02.082Z,8.39
2023-04-09T00:19:02.479Z,8.36
2023-04-09T00:20:01.983Z,8.39
2023-04-09T00:21:02.360Z,8.42
2023-04-09T00:22:02.444Z,8.40
2023-04-09T00:23:02.859Z,8.36
2023-04-09T00:24:02.746Z,8.30
2023-04-09T00:25:02.942Z,8.26
2023-04-09T00:26:02.599Z,8.25
2023-04-09T00:27:02.561Z,8.22
2023-04-09T00:28:02.652Z,8.26
2023-04-09T00:29:02.569Z,8.28
2023-04-09T00:30:02.472Z,8.25
2023-04-09T00:31:03.072Z,8.21
2023-04-09T00:32:02.093Z,8.21
2023-04-09T00:33:02.076Z,8.25
2023-04-09T00:34:02.157Z,8.26
2023-04-09T00:35:01.910Z,8.25
2023-04-09T00:36:01.820Z,8.22
2023-04-09T00:37:02.119Z,8.28
2023-04-09T00:38:02.068Z,8.32
2023-04-09T00:39:02.452Z,8.37
2023-04-09T00:40:02.398Z,8.39
2023-04-09T00:41:01.982Z,8.47
2023-04-09T00:42:02.435Z,8.53
2023-04-09T00:43:02.693Z,8.57
2023-04-09T00:44:02.372Z,8.58
2023-04-09T00:45:03.035Z,8.62
2023-04-09T00:46:02.735Z,8.62
2023-04-09T00:47:01.645Z,8.69
2023-04-09T00:48:01.926Z,8.63
2023-04-09T00:49:01.771Z,8.58
2023-04-09T00:50:01.595Z,8.51
2023-04-09T00:51:01.554Z,8.48
2023-04-09T00:52:02.353Z,8.51
2023-04-09T00:53:02.197Z,8.55
2023-04-09T00:54:02.048Z,8.57
2023-04-09T00:55:02.197Z,8.58
2023-04-09T00:56:02.314Z,8.60
2023-04-09T00:57:02.540Z,8.58
2023-04-09T00:58:02.760Z,8.58
2023-04-09T00:59:02.482Z,8.58
2023-04-09T01:00:02.635Z,8.57
2023-04-09T01:01:02.981Z,8.62
2023-04-09T01:02:02.071Z,8.63
2023-04-09T01:03:02.284Z,8.65
2023-04-09T01:04:02.003Z,8.66
2023-04-09T01:05:01.842Z,8.68
2023-04-09T01:06:02.346Z,8.69
2023-04-09T01:07:01.896Z,8.66
2023-04-09T01:08:01.771Z,8.58
2023-04-09T01:09:02.256Z,8.57
2023-04-09T01:10:02.269Z,8.57
2023-04-09T01:11:02.381Z,8.55
2023-04-09T01:12:02.351Z,8.53
2023-04-09T01:13:02.646Z,8.47
2023-04-09T01:14:02.575Z,8.47
2023-04-09T01:15:02.496Z,8.48
2023-04-09T01:16:02.434Z,8.47
2023-04-09T01:17:02.038Z,8.50
2023-04-09T01:18:01.797Z,8.51
2023-04-09T01:19:02.344Z,8.58
2023-04-09T01:20:02.161Z,8.63
2023-04-09T01:21:02.188Z,8.68
2023-04-09T01:22:02.365Z,8.69
2023-04-09T01:23:02.165Z,8.68
2023-04-09T01:24:02.325Z,8.69
2023-04-09T01:25:02.330Z,8.71
2023-04-09T01:26:02.440Z,8.69
2023-04-09T01:27:02.570Z,8.71
2023-04-09T01:28:02.045Z,8.69
2023-04-09T01:29:02.063Z,8.68
2023-04-09T01:30:02.582Z,8.66
2023-04-09T01:31:02.222Z,8.68
2023-04-09T01:32:01.825Z,8.66
2023-04-09T01:33:01.677Z,8.68
2023-04-09T01:34:01.625Z,8.66
2023-04-09T01:35:02.113Z,8.66
2023-04-09T01:36:01.705Z,8.69
2023-04-09T01:37:02.179Z,8.71
2023-04-09T01:38:01.993Z,8.72
2023-04-09T01:39:01.887Z,8.66
2023-04-09T01:40:02.173Z,8.63
2023-04-09T01:41:02.043Z,8.62
2023-04-09T01:42:02.589Z,8.62
2023-04-09T01:43:02.221Z,8.62
2023-04-09T01:44:02.767Z,8.58
2023-04-09T01:45:02.492Z,8.58
2023-04-09T01:46:02.612Z,8.58
2023-04-09T01:47:02.099Z,8.55
2023-04-09T01:48:02.120Z,8.55
2023-04-09T01:49:02.223Z,8.62
2023-04-09T01:50:02.522Z,8.62
2023-04-09T01:51:01.952Z,8.62
2023-04-09T01:52:02.382Z,8.60
2023-04-09T01:53:02.348Z,8.60
2023-04-09T01:54:02.247Z,8.62
2023-04-09T01:55:02.697Z,8.63
2023-04-09T01:56:02.704Z,8.63
2023-04-09T01:57:02.259Z,8.62
2023-04-09T01:58:02.131Z,8.60
2023-04-09T01:59:02.248Z,8.55
2023-04-09T02:00:02.242Z,8.58
2023-04-09T02:01:02.517Z,8.58
2023-04-09T02:02:02.556Z,8.60
2023-04-09T02:03:02.682Z,8.60
2023-04-09T02:04:02.727Z,8.62
2023-04-09T02:05:02.404Z,8.63
2023-04-09T02:06:02.917Z,8.62
2023-04-09T02:07:03.323Z,8.63
2023-04-09T02:08:02.781Z,8.62
2023-04-09T02:09:03.269Z,8.60
2023-04-09T02:10:02.705Z,8.58
2023-04-09T02:11:02.730Z,8.57
2023-04-09T02:12:03.148Z,8.55
2023-04-09T02:13:02.999Z,8.51
2023-04-09T02:14:03.242Z,8.40
2023-04-09T02:15:03.123Z,8.35
2023-04-09T02:16:02.943Z,8.32
2023-04-09T02:17:02.556Z,8.33
2023-04-09T02:18:02.159Z,8.33
2023-04-09T02:19:02.007Z,8.29
2023-04-09T02:20:02.225Z,8.26
2023-04-09T02:21:02.294Z,8.22
2023-04-09T02:22:02.805Z,8.15
2023-04-09T02:23:02.803Z,8.14
2023-04-09T02:24:02.370Z,8.11
2023-04-09T02:25:02.521Z,8.11
2023-04-09T02:26:02.629Z,8.11
2023-04-09T02:27:01.849Z,8.12
2023-04-09T02:28:02.461Z,8.11
2023-04-09T02:29:02.317Z,8.14
2023-04-09T02:30:02.432Z,8.08
2023-04-09T02:31:02.181Z,8.04
2023-04-09T02:32:02.170Z,8.02
2023-04-09T02:33:02.807Z,7.97
2023-04-09T02:34:02.482Z,7.96
2023-04-09T02:35:02.267Z,7.94
2023-04-09T02:36:02.217Z,7.96
2023-04-09T02:37:02.817Z,7.92
2023-04-09T02:38:02.826Z,7.92
2023-04-09T02:39:02.777Z,7.90
2023-04-09T02:40:02.448Z,7.90
2023-04-09T02:41:02.340Z,7.92
2023-04-09T02:42:02.598Z,7.89
2023-04-09T02:43:02.531Z,7.82
2023-04-09T02:44:02.290Z,7.67
2023-04-09T02:45:02.324Z,7.62
2023-04-09T02:46:02.547Z,7.60
2023-04-09T02:47:03.062Z,7.60
2023-04-09T02:48:02.880Z,7.58
2023-04-09T02:49:02.827Z,7.56
2023-04-09T02:50:02.641Z,7.55
2023-04-09T02:51:02.616Z,7.49
2023-04-09T02:52:03.327Z,7.47
2023-04-09T02:53:03.100Z,7.52
2023-04-09T02:54:03.159Z,7.50
2023-04-09T02:55:03.064Z,7.52
2023-04-09T02:56:03.081Z,7.49
2023-04-09T02:57:02.122Z,7.49
2023-04-09T02:58:02.267Z,7.49
2023-04-09T02:59:02.369Z,7.47
2023-04-09T03:00:02.308Z,7.47
2023-04-09T03:01:02.370Z,7.42
2023-04-09T03:02:02.932Z,7.40
2023-04-09T03:03:02.804Z,7.37
2023-04-09T03:04:02.688Z,7.34
2023-04-09T03:05:02.458Z,7.32
2023-04-09T03:06:02.592Z,7.31
2023-04-09T03:07:02.554Z,7.32
2023-04-09T03:08:03.081Z,7.27
2023-04-09T03:09:02.811Z,7.29
2023-04-09T03:10:02.715Z,7.31
2023-04-09T03:11:02.877Z,7.34
2023-04-09T03:12:02.807Z,7.32
2023-04-09T03:13:03.281Z,7.31
2023-04-09T03:14:03.103Z,7.31
2023-04-09T03:15:02.901Z,7.26
2023-04-09T03:16:03.467Z,7.23
2023-04-09T03:17:02.143Z,7.24
2023-04-09T03:18:02.784Z,7.12
2023-04-09T03:19:02.302Z,6.95
2023-04-09T03:20:02.545Z,6.77
2023-04-09T03:21:02.413Z,6.68
2023-04-09T03:22:02.458Z,6.68
2023-04-09T03:23:02.487Z,6.77
2023-04-09T03:24:02.998Z,6.84
2023-04-09T03:25:02.519Z,6.90
2023-04-09T03:26:03.044Z,6.95
2023-04-09T03:27:02.111Z,6.99
2023-04-09T03:28:02.102Z,7.02
2023-04-09T03:29:02.534Z,7.04
2023-04-09T03:30:02.096Z,7.02
2023-04-09T03:31:02.019Z,7.05
2023-04-09T03:32:02.682Z,7.08
2023-04-09T03:33:02.688Z,7.12
2023-04-09T03:34:03.111Z,7.13
2023-04-09T03:35:02.583Z,7.20
2023-04-09T03:36:03.326Z,7.22
2023-04-09T03:37:02.917Z,7.26
2023-04-09T03:38:02.859Z,7.26
2023-04-09T03:39:03.241Z,7.29
2023-04-09T03:40:03.101Z,7.24
2023-04-09T03:41:02.892Z,7.26
2023-04-09T03:42:03.002Z,7.27
2023-04-09T03:43:02.680Z,7.26
2023-04-09T03:44:02.498Z,7.22
2023-04-09T03:45:02.527Z,7.22
2023-04-09T03:46:02.592Z,7.22
2023-04-09T03:47:02.264Z,7.22
2023-04-09T03:48:02.644Z,7.19
2023-04-09T03:49:02.483Z,7.19
2023-04-09T03:50:02.482Z,7.23
2023-04-09T03:51:02.322Z,7.26
2023-04-09T03:52:02.864Z,7.26
2023-04-09T03:53:02.873Z,7.27
2023-04-09T03:54:02.744Z,7.29
2023-04-09T03:55:03.261Z,7.31
2023-04-09T03:56:02.676Z,7.32
2023-04-09T03:57:02.331Z,7.31
2023-04-09T03:58:02.558Z,7.32
2023-04-09T03:59:02.402Z,7.32
2023-04-09T04:00:02.418Z,7.27
2023-04-09T04:01:02.416Z,7.27
2023-04-09T04:02:03.689Z,7.29
2023-04-09T04:03:03.568Z,7.31
2023-04-09T04:04:03.234Z,7.31
2023-04-09T04:05:03.154Z,7.31
2023-04-09T04:06:03.009Z,7.31
2023-04-09T04:07:02.373Z,7.31
2023-04-09T04:08:02.254Z,7.29
2023-04-09T04:09:02.192Z,7.29
2023-04-09T04:10:02.156Z,7.32
2023-04-09T04:11:02.639Z,7.34
2023-04-09T04:12:03.038Z,7.35
2023-04-09T04:13:02.973Z,7.35
2023-04-09T04:14:02.893Z,7.37
2023-04-09T04:15:02.742Z,7.38
2023-04-09T04:16:03.316Z,7.35
2023-04-09T04:17:03.176Z,7.34
2023-04-09T04:18:03.120Z,7.31
2023-04-09T04:19:02.898Z,7.29
2023-04-09T04:20:03.444Z,7.32
2023-04-09T04:21:03.355Z,7.37
2023-04-09T04:22:03.294Z,7.38
2023-04-09T04:23:03.616Z,7.44
2023-04-09T04:24:03.216Z,7.45
2023-04-09T04:25:03.196Z,7.42
2023-04-09T04:26:03.212Z,7.37
2023-04-09T04:27:02.847Z,7.34
2023-04-09T04:28:02.423Z,7.31
2023-04-09T04:29:02.528Z,7.32
2023-04-09T04:30:02.515Z,7.32
2023-04-09T04:31:02.354Z,7.35
2023-04-09T04:32:03.065Z,7.40
2023-04-09T04:33:02.924Z,7.44
2023-04-09T04:34:02.904Z,7.41
2023-04-09T04:35:02.916Z,7.44
2023-04-09T04:36:03.131Z,7.47
2023-04-09T04:37:03.109Z,7.47
2023-04-09T04:38:02.804Z,7.50
2023-04-09T04:39:02.641Z,7.49
2023-04-09T04:40:02.888Z,7.52
2023-04-09T04:41:02.957Z,7.44
2023-04-09T04:42:02.696Z,7.38
2023-04-09T04:43:02.646Z,7.38
2023-04-09T04:44:03.201Z,7.40
2023-04-09T04:45:03.113Z,7.44
2023-04-09T04:46:03.169Z,7.44
2023-04-09T04:47:02.660Z,7.44
2023-04-09T04:48:02.932Z,7.45
2023-04-09T04:49:02.664Z,7.45
2023-04-09T04:50:02.618Z,7.41
2023-04-09T04:51:02.838Z,7.32
2023-04-09T04:52:03.374Z,7.32
2023-04-09T04:53:03.284Z,7.34
2023-04-09T04:54:02.895Z,7.32
2023-04-09T04:55:02.865Z,7.37
2023-04-09T04:56:02.778Z,7.37
2023-04-09T04:57:02.504Z,7.31
2023-04-09T04:58:02.571Z,7.31
2023-04-09T04:59:02.223Z,7.32
2023-04-09T05:00:02.230Z,7.35
2023-04-09T05:01:02.593Z,7.35
2023-04-09T05:02:02.334Z,7.31
2023-04-09T05:03:02.164Z,7.32
2023-04-09T05:04:02.060Z,7.35
2023-04-09T05:05:02.071Z,7.38
2023-04-09T05:06:02.204Z,7.37
2023-04-09T05:07:02.018Z,7.37
2023-04-09T05:08:02.118Z,7.38
2023-04-09T05:09:02.389Z,7.37
2023-04-09T05:10:02.448Z,7.34
2023-04-09T05:11:02.268Z,7.34
2023-04-09T05:12:02.664Z,7.32
2023-04-09T05:13:02.253Z,7.27
2023-04-09T05:14:02.195Z,7.20
2023-04-09T05:15:02.203Z,7.15
2023-04-09T05:16:02.160Z,7.15
2023-04-09T05:17:02.876Z,7.16
2023-04-09T05:18:02.853Z,7.19
2023-04-09T05:19:02.654Z,7.23
2023-04-09T05:20:02.506Z,7.27
2023-04-09T05:21:02.902Z,7.23
2023-04-09T05:22:02.381Z,7.19
2023-04-09T05:23:02.440Z,7.13
2023-04-09T05:24:02.167Z,7.12
2023-04-09T05:25:02.167Z,7.13
2023-04-09T05:26:02.120Z,7.08
2023-04-09T05:27:02.709Z,7.15
2023-04-09T05:28:02.516Z,7.15
2023-04-09T05:29:02.493Z,7.19
2023-04-09T05:30:02.479Z,7.23
2023-04-09T05:31:02.527Z,7.20
2023-04-09T05:32:02.288Z,7.15
2023-04-09T05:33:01.694Z,7.13
2023-04-09T05:34:02.094Z,7.12
2023-04-09T05:35:02.127Z,7.17
2023-04-09T05:36:02.107Z,7.20
2023-04-09T05:37:02.340Z,7.26
2023-04-09T05:38:02.378Z,7.32
2023-04-09T05:39:02.663Z,7.38
2023-04-09T05:40:02.446Z,7.38
2023-04-09T05:41:02.348Z,7.42
2023-04-09T05:42:02.329Z,7.45
2023-04-09T05:43:02.935Z,7.49
2023-04-09T05:44:02.820Z,7.53
2023-04-09T05:45:02.417Z,7.50
2023-04-09T05:46:02.546Z,7.49
2023-04-09T05:47:02.101Z,7.55
2023-04-09T05:48:02.345Z,7.52
2023-04-09T05:49:02.098Z,7.52
2023-04-09T05:50:02.320Z,7.55
2023-04-09T05:51:02.072Z,7.56
2023-04-09T05:52:02.678Z,7.55
2023-04-09T05:53:02.528Z,7.53
2023-04-09T05:54:02.651Z,7.52
2023-04-09T05:55:02.331Z,7.50
2023-04-09T05:56:02.562Z,7.45
2023-04-09T05:57:02.316Z,7.49
2023-04-09T05:58:02.288Z,7.44
2023-04-09T05:59:02.689Z,7.49
2023-04-09T06:00:02.764Z,7.56
2023-04-09T06:01:02.690Z,7.58
2023-04-09T06:02:01.901Z,7.53
2023-04-09T06:03:02.195Z,7.53
2023-04-09T06:04:02.464Z,7.56
2023-04-09T06:05:02.124Z,7.60
2023-04-09T06:06:01.921Z,7.63
2023-04-09T06:07:01.804Z,7.67
2023-04-09T06:08:01.715Z,7.66
2023-04-09T06:09:01.721Z,7.69
2023-04-09T06:10:02.134Z,7.71
2023-04-09T06:11:02.133Z,7.72
2023-04-09T06:12:01.999Z,7.67
2023-04-09T06:13:02.280Z,7.74
2023-04-09T06:14:02.499Z,7.74
2023-04-09T06:15:01.946Z,7.77
2023-04-09T06:16:02.569Z,7.78
2023-04-09T06:17:02.217Z,7.84
2023-04-09T06:18:02.639Z,7.89
2023-04-09T06:19:02.631Z,7.92
2023-04-09T06:20:02.330Z,7.94
2023-04-09T06:21:02.383Z,7.96
2023-04-09T06:22:02.235Z,8.00
2023-04-09T06:23:02.468Z,8.10
2023-04-09T06:24:02.461Z,8.12
2023-04-09T06:25:02.696Z,8.17
2023-04-09T06:26:02.213Z,8.20
2023-04-09T06:27:02.140Z,8.25
2023-04-09T06:28:02.070Z,8.28
2023-04-09T06:29:02.118Z,8.33
2023-04-09T06:30:02.361Z,8.35
2023-04-09T06:31:02.146Z,8.35
2023-04-09T06:32:02.258Z,8.39
2023-04-09T06:33:02.523Z,8.50
2023-04-09T06:34:02.606Z,8.57
2023-04-09T06:35:02.500Z,8.65
2023-04-09T06:36:02.427Z,8.68
2023-04-09T06:37:01.678Z,8.76
2023-04-09T06:38:01.782Z,8.86
2023-04-09T06:39:01.799Z,8.99
2023-04-09T06:40:01.834Z,9.05
2023-04-09T06:41:02.092Z,9.15
2023-04-09T06:42:02.268Z,9.20
2023-04-09T06:43:02.257Z,9.28
2023-04-09T06:44:02.349Z,9.38
2023-04-09T06:45:02.248Z,9.46
2023-04-09T06:46:02.207Z,9.50
2023-04-09T06:47:02.455Z,9.60
2023-04-09T06:48:02.633Z,9.67
2023-04-09T06:49:02.567Z,9.78
2023-04-09T06:50:02.591Z,9.86
2023-04-09T06:51:02.435Z,9.96
2023-04-09T06:52:02.342Z,10.01
2023-04-09T06:53:02.314Z,10.10
2023-04-09T06:54:02.369Z,10.14
2023-04-09T06:55:02.954Z,10.19
2023-04-09T06:56:02.775Z,10.24
2023-04-09T06:57:01.745Z,10.24
2023-04-09T06:58:02.225Z,10.26
2023-04-09T06:59:01.674Z,10.34
2023-04-09T07:00:01.570Z,10.42
2023-04-09T07:01:01.928Z,10.51
2023-04-09T07:02:03.528Z,10.58
2023-04-09T07:03:03.140Z,10.66
2023-04-09T07:04:03.620Z,10.77
2023-04-09T07:05:02.888Z,10.84
2023-04-09T07:06:03.443Z,10.88
2023-04-09T07:07:02.587Z,10.91
2023-04-09T07:08:02.280Z,10.94
2023-04-09T07:09:02.300Z,10.98
2023-04-09T07:10:02.867Z,10.94
2023-04-09T07:11:02.735Z,10.92
2023-04-09T07:12:02.755Z,10.92
2023-04-09T07:13:02.735Z,10.96
2023-04-09T07:14:02.855Z,10.99
2023-04-09T07:15:02.947Z,11.06
2023-04-09T07:16:02.572Z,11.09
2023-04-09T07:17:03.210Z,11.13
2023-04-09T07:18:03.631Z,11.14
2023-04-09T07:19:03.472Z,11.14
2023-04-09T07:20:03.431Z,11.17
2023-04-09T07:21:04.397Z,11.24
2023-04-09T07:22:03.213Z,11.21
2023-04-09T07:23:03.577Z,11.25
2023-04-09T07:24:03.492Z,11.31
2023-04-09T07:25:03.312Z,11.39
2023-04-09T07:26:03.414Z,11.44
2023-04-09T07:27:02.564Z,11.53
2023-04-09T07:28:02.836Z,11.62
2023-04-09T07:29:02.810Z,11.68
2023-04-09T07:30:02.785Z,11.74
2023-04-09T07:31:02.487Z,11.87
2023-04-09T07:32:03.270Z,11.97
2023-04-09T07:33:03.023Z,12.04
2023-04-09T07:34:03.059Z,12.13
2023-04-09T07:35:03.177Z,12.21
2023-04-09T07:36:03.345Z,12.33
2023-04-09T07:37:02.843Z,12.44
2023-04-09T07:38:03.030Z,12.46
2023-04-09T07:39:02.468Z,12.56
2023-04-09T07:40:03.088Z,12.64
2023-04-09T07:41:02.624Z,12.67
2023-04-09T07:42:03.403Z,12.69
2023-04-09T07:43:03.325Z,12.66
2023-04-09T07:44:03.099Z,12.63
2023-04-09T07:45:03.262Z,12.63
2023-04-09T07:46:03.604Z,12.60
2023-04-09T07:47:02.836Z,12.60
2023-04-09T07:48:02.928Z,12.62
2023-04-09T07:49:02.497Z,12.64
2023-04-09T07:50:02.598Z,12.66
2023-04-09T07:51:02.568Z,12.71
2023-04-09T07:52:03.268Z,12.84
2023-04-09T07:53:03.392Z,12.93
2023-04-09T07:54:03.461Z,12.99
2023-04-09T07:55:03.028Z,13.03
2023-04-09T07:56:03.396Z,13.04
2023-04-09T07:57:03.345Z,13.09
2023-04-09T07:58:03.190Z,13.14
2023-04-09T07:59:03.588Z,13.17
2023-04-09T08:00:02.955Z,13.18
2023-04-09T08:01:03.222Z,13.24
2023-04-09T08:02:02.802Z,13.24
2023-04-09T08:03:03.065Z,13.22
2023-04-09T08:04:03.268Z,13.22
2023-04-09T08:05:02.749Z,13.27
2023-04-09T08:06:02.868Z,13.32
2023-04-09T08:07:03.003Z,13.41
2023-04-09T08:08:03.107Z,13.47
2023-04-09T08:09:02.926Z,13.55
2023-04-09T08:10:03.052Z,13.59
2023-04-09T08:11:03.146Z,13.63
2023-04-09T08:12:02.673Z,13.69
2023-04-09T08:13:02.434Z,13.79
2023-04-09T08:14:02.421Z,13.89
2023-04-09T08:15:02.537Z,13.96
2023-04-09T08:16:02.587Z,14.01
2023-04-09T08:17:02.314Z,14.01
2023-04-09T08:18:02.043Z,13.95
2023-04-09T08:19:02.375Z,13.94
2023-04-09T08:20:02.110Z,13.94
2023-04-09T08:21:01.882Z,14.01
2023-04-09T08:22:02.872Z,14.09
2023-04-09T08:23:02.349Z,14.16
2023-04-09T08:24:02.305Z,14.19
2023-04-09T08:25:03.039Z,14.27
2023-04-09T08:26:02.965Z,14.37
2023-04-09T08:27:02.250Z,14.49
2023-04-09T08:28:01.870Z,14.52
2023-04-09T08:29:01.833Z,14.53
2023-04-09T08:30:01.954Z,14.62
2023-04-09T08:31:02.278Z,14.71
2023-04-09T08:32:02.839Z,14.78
2023-04-09T08:33:02.245Z,14.86
2023-04-09T08:34:02.655Z,14.87
2023-04-09T08:35:02.579Z,14.84
2023-04-09T08:36:03.455Z,14.87
2023-04-09T08:37:01.783Z,14.91
2023-04-09T08:38:02.163Z,14.90
2023-04-09T08:39:02.186Z,14.94
2023-04-09T08:40:02.331Z,15.03
2023-04-09T08:41:02.109Z,14.94
2023-04-09T08:42:02.919Z,14.88
2023-04-09T08:43:02.273Z,14.88
2023-04-09T08:44:02.947Z,14.95
2023-04-09T08:45:02.858Z,15.02
2023-04-09T08:46:02.637Z,14.90
2023-04-09T08:47:01.757Z,14.83
2023-04-09T08:48:01.993Z,14.81
2023-04-09T08:49:02.246Z,14.74
2023-04-09T08:50:02.098Z,14.69
2023-04-09T08:51:02.242Z,14.80
2023-04-09T08:52:02.235Z,14.88
2023-04-09T08:53:02.216Z,14.91
2023-04-09T08:54:04.660Z,14.90
2023-04-09T08:55:02.536Z,14.93
2023-04-09T08:56:02.766Z,15.06
2023-04-09T08:57:01.816Z,15.08
2023-04-09T08:58:01.911Z,15.03
2023-04-09T08:59:02.056Z,14.91
2023-04-09T09:00:01.993Z,14.95
2023-04-09T09:01:01.815Z,15.08
2023-04-09T09:02:02.233Z,15.23
2023-04-09T09:03:02.667Z,15.28
2023-04-09T09:04:02.863Z,15.24
2023-04-09T09:05:02.716Z,15.24
2023-04-09T09:06:02.204Z,15.24
2023-04-09T09:07:02.332Z,15.27
2023-04-09T09:08:02.296Z,15.30
2023-04-09T09:09:02.687Z,15.30
2023-04-09T09:10:02.711Z,15.27
2023-04-09T09:11:02.651Z,15.28
2023-04-09T09:12:03.289Z,15.36
2023-04-09T09:13:03.373Z,15.49
2023-04-09T09:14:03.111Z,15.56
2023-04-09T09:15:02.864Z,15.46
2023-04-09T09:16:02.986Z,15.42
2023-04-09T09:17:02.037Z,15.46
2023-04-09T09:18:02.052Z,15.56
2023-04-09T09:19:02.442Z,15.59
2023-04-09T09:20:01.950Z,15.57
2023-04-09T09:21:01.964Z,15.63
2023-04-09T09:22:02.070Z,15.63
2023-04-09T09:23:02.345Z,15.67
2023-04-09T09:24:02.359Z,15.72
2023-04-09T09:25:02.316Z,15.79
2023-04-09T09:26:01.998Z,15.92
2023-04-09T09:27:02.324Z,16.00
2023-04-09T09:28:02.737Z,15.96
2023-04-09T09:29:02.552Z,15.89
2023-04-09T09:30:02.649Z,15.75
2023-04-09T09:31:02.769Z,15.68
2023-04-09T09:32:02.517Z,15.56
2023-04-09T09:33:02.546Z,15.57
2023-04-09T09:34:02.490Z,15.54
2023-04-09T09:35:02.479Z,15.51
2023-04-09T09:36:02.670Z,15.51
2023-04-09T09:37:02.653Z,15.54
2023-04-09T09:38:02.683Z,15.59
2023-04-09T09:39:03.061Z,15.63
2023-04-09T09:40:02.972Z,15.64
2023-04-09T09:41:02.523Z,15.64
2023-04-09T09:42:02.209Z,15.67
2023-04-09T09:43:02.283Z,15.81
2023-04-09T09:44:02.406Z,15.93
2023-04-09T09:45:02.465Z,16.04
2023-04-09T09:46:02.337Z,16.09
2023-04-09T09:47:02.434Z,16.09
2023-04-09T09:48:02.810Z,16.07
2023-04-09T09:49:02.275Z,16.07
2023-04-09T09:50:02.442Z,16.00
2023-04-09T09:51:02.536Z,15.81
2023-04-09T09:52:02.622Z,15.81
2023-04-09T09:53:02.597Z,15.88
2023-04-09T09:54:02.611Z,15.94
2023-04-09T09:55:02.723Z,15.99
2023-04-09T09:56:02.810Z,15.99
2023-04-09T09:57:02.992Z,15.88
2023-04-09T09:58:02.901Z,15.84
2023-04-09T09:59:03.385Z,15.88
2023-04-09T10:00:03.270Z,15.92
2023-04-09T10:01:02.942Z,15.93
2023-04-09T10:02:02.829Z,15.96
2023-04-09T10:03:02.987Z,16.04
2023-04-09T10:04:02.848Z,16.11
2023-04-09T10:05:03.059Z,16.18
2023-04-09T10:06:03.030Z,16.27
2023-04-09T10:07:03.199Z,16.41
2023-04-09T10:08:03.423Z,16.42
2023-04-09T10:09:03.288Z,16.48
2023-04-09T10:10:03.125Z,16.41
2023-04-09T10:11:02.963Z,16.40
2023-04-09T10:12:02.855Z,16.41
2023-04-09T10:13:03.045Z,16.27
2023-04-09T10:14:02.693Z,16.09
2023-04-09T10:15:02.955Z,16.03
2023-04-09T10:16:03.264Z,15.93
2023-04-09T10:17:02.375Z,16.03
2023-04-09T10:18:02.373Z,16.14
2023-04-09T10:19:02.481Z,16.16
2023-04-09T10:20:02.659Z,16.23
2023-04-09T10:21:02.535Z,16.30
2023-04-09T10:22:02.713Z,16.37
2023-04-09T10:23:02.976Z,16.48
2023-04-09T10:24:03.025Z,16.59
2023-04-09T10:25:02.388Z,16.74
2023-04-09T10:26:02.509Z,16.83
2023-04-09T10:27:03.327Z,16.86
2023-04-09T10:28:03.495Z,16.86
2023-04-09T10:29:03.632Z,16.90
2023-04-09T10:30:03.379Z,16.92
2023-04-09T10:31:03.067Z,16.85
2023-04-09T10:32:02.488Z,16.73
2023-04-09T10:33:02.595Z,16.62
2023-04-09T10:34:02.709Z,16.63
2023-04-09T10:35:03.055Z,16.63
2023-04-09T10:36:02.989Z,16.55
2023-04-09T10:37:02.549Z,16.35
2023-04-09T10:38:02.494Z,16.33
2023-04-09T10:39:02.550Z,16.42
2023-04-09T10:40:02.605Z,16.50
2023-04-09T10:41:02.719Z,16.45
2023-04-09T10:42:03.099Z,16.44
2023-04-09T10:43:03.011Z,16.49
2023-04-09T10:44:03.146Z,16.44
2023-04-09T10:45:03.222Z,16.44
2023-04-09T10:46:02.653Z,16.44
2023-04-09T10:47:02.725Z,16.49
2023-04-09T10:48:02.296Z,16.50
2023-04-09T10:49:02.836Z,16.48
2023-04-09T10:50:02.735Z,16.38
2023-04-09T10:51:02.754Z,16.25
2023-04-09T10:52:02.913Z,16.14
2023-04-09T10:53:02.733Z,16.20
2023-04-09T10:54:02.536Z,16.27
2023-04-09T10:55:02.635Z,16.37
2023-04-09T10:56:02.766Z,16.52
2023-04-09T10:57:03.186Z,16.60
2023-04-09T10:58:03.297Z,16.65
2023-04-09T10:59:03.378Z,16.73
2023-04-09T11:00:03.224Z,16.78
2023-04-09T11:01:03.213Z,16.86
2023-04-09T11:02:03.033Z,16.95
2023-04-09T11:03:02.846Z,17.03
2023-04-09T11:04:02.877Z,16.96
2023-04-09T11:05:02.776Z,16.81
2023-04-09T11:06:02.953Z,16.71
2023-04-09T11:07:03.406Z,16.65
2023-04-09T11:08:03.527Z,16.71
2023-04-09T11:09:03.457Z,16.80
2023-04-09T11:10:03.309Z,16.86
2023-04-09T11:11:03.511Z,16.86
2023-04-09T11:12:03.455Z,16.73
2023-04-09T11:13:03.125Z,16.55
2023-04-09T11:14:02.986Z,16.50
2023-04-09T11:15:03.143Z,16.56
2023-04-09T11:16:03.432Z,16.55
2023-04-09T11:17:03.031Z,16.49
2023-04-09T11:18:02.663Z,16.42
2023-04-09T11:19:02.718Z,16.45
2023-04-09T11:20:02.786Z,16.49
2023-04-09T11:21:02.999Z,16.41
2023-04-09T11:22:03.160Z,16.38
2023-04-09T11:23:03.030Z,16.38
2023-04-09T11:24:03.053Z,16.33
2023-04-09T11:25:02.717Z,16.35
2023-04-09T11:26:02.785Z,16.40
2023-04-09T11:27:03.515Z,16.37
2023-04-09T11:28:03.360Z,16.35
2023-04-09T11:29:03.275Z,16.38
2023-04-09T11:30:03.292Z,16.35
2023-04-09T11:31:03.507Z,16.44
2023-04-09T11:32:02.137Z,16.48
2023-04-09T11:33:02.381Z,16.53
2023-04-09T11:34:02.416Z,16.52
2023-04-09T11:35:02.477Z,16.53
2023-04-09T11:36:02.250Z,16.58
2023-04-09T11:37:02.621Z,16.68
2023-04-09T11:38:02.861Z,16.67
2023-04-09T11:39:02.838Z,16.62
2023-04-09T11:40:03.275Z,16.53
2023-04-09T11:41:03.264Z,16.49
2023-04-09T11:42:02.829Z,16.50
2023-04-09T11:43:03.139Z,16.55
2023-04-09T11:44:02.912Z,16.60
2023-04-09T11:45:02.987Z,16.62
2023-04-09T11:46:03.185Z,16.62
2023-04-09T11:47:03.533Z,16.71
2023-04-09T11:48:02.825Z,16.67
2023-04-09T11:49:02.976Z,16.62
2023-04-09T11:50:02.487Z,16.62
2023-04-09T11:51:02.624Z,16.73
2023-04-09T11:52:02.675Z,16.85
2023-04-09T11:53:03.388Z,16.80
2023-04-09T11:54:03.422Z,16.75
2023-04-09T11:55:03.430Z,16.70
2023-04-09T11:56:03.510Z,16.73
2023-04-09T11:57:03.423Z,16.68
2023-04-09T11:58:03.224Z,16.73
2023-04-09T11:59:03.167Z,16.77
2023-04-09T12:00:05.210Z,16.81
2023-04-09T12:01:03.076Z,16.93
2023-04-09T12:02:03.357Z,16.99
2023-04-09T12:03:03.658Z,17.10
2023-04-09T12:04:03.445Z,17.08
2023-04-09T12:05:03.056Z,17.15
2023-04-09T12:06:03.579Z,17.25
2023-04-09T12:07:02.905Z,17.25
2023-04-09T12:08:02.950Z,17.26
2023-04-09T12:09:02.751Z,17.30
2023-04-09T12:10:02.602Z,17.28
2023-04-09T12:11:02.926Z,17.13
2023-04-09T12:12:02.855Z,17.00
2023-04-09T12:13:02.010Z,16.99
2023-04-09T12:14:02.040Z,16.89
2023-04-09T12:15:02.129Z,16.81
2023-04-09T12:16:02.302Z,16.86
2023-04-09T12:17:02.539Z,16.92
2023-04-09T12:18:03.287Z,16.92
2023-04-09T12:19:03.163Z,16.89
2023-04-09T12:20:02.839Z,16.88
2023-04-09T12:21:02.949Z,16.81
2023-04-09T12:22:02.860Z,16.81
2023-04-09T12:23:02.347Z,16.89
2023-04-09T12:24:02.454Z,16.98
2023-04-09T12:25:02.650Z,17.06
2023-04-09T12:26:02.722Z,17.15
2023-04-09T12:27:02.172Z,17.14
2023-04-09T12:28:03.047Z,17.04
2023-04-09T12:29:02.919Z,17.07
2023-04-09T12:30:03.020Z,17.10
2023-04-09T12:31:02.785Z,17.11
2023-04-09T12:32:02.682Z,17.07
2023-04-09T12:33:02.897Z,17.06
2023-04-09T12:34:03.063Z,16.99
2023-04-09T12:35:02.903Z,17.03
2023-04-09T12:36:03.199Z,17.04
2023-04-09T12:37:02.875Z,17.07
2023-04-09T12:38:02.490Z,17.04
2023-04-09T12:39:02.604Z,16.86
2023-04-09T12:40:02.735Z,16.77
2023-04-09T12:41:02.677Z,16.75
2023-04-09T12:42:02.477Z,16.80
2023-04-09T12:43:02.990Z,16.75
2023-04-09T12:44:02.767Z,16.73
2023-04-09T12:45:02.739Z,16.70
2023-04-09T12:46:02.920Z,16.70
2023-04-09T12:47:03.134Z,16.68
2023-04-09T12:48:02.925Z,16.70
2023-04-09T12:49:02.503Z,16.78
2023-04-09T12:50:02.723Z,16.83
2023-04-09T12:51:02.772Z,16.78
2023-04-09T12:52:02.393Z,16.65
2023-04-09T12:53:03.200Z,16.56
2023-04-09T12:54:02.764Z,16.55
2023-04-09T12:55:03.069Z,16.56
2023-04-09T12:56:02.560Z,16.67
2023-04-09T12:57:03.044Z,16.71
2023-04-09T12:58:02.267Z,16.77
2023-04-09T12:59:02.705Z,16.81
2023-04-09T13:00:02.745Z,16.81
2023-04-09T13:01:02.747Z,16.77
2023-04-09T13:02:02.552Z,16.77
2023-04-09T13:03:02.629Z,16.80
2023-04-09T13:04:02.971Z,16.74
2023-04-09T13:05:02.773Z,16.77